createdAt,value
2023-01-29T00:02:14.777Z,76.27
2023-01-29T00:04:46.443Z,74.78
2023-01-29T00:07:15.104Z,75.78
2023-01-29T00:09:44.665Z,74.94
2023-01-29T00:12:13.947Z,76.34
2023-01-29T00:14:42.422Z,76.39
2023-01-29T00:17:10.428Z,75.18
2023-01-29T00:19:37.036Z,75.98
2023-01-29T00:22:03.809Z,74.98
2023-01-29T00:24:30.387Z,75.88
2023-01-29T00:26:57.083Z,74.84
2023-01-29T00:29:23.641Z,76.20
2023-01-29T00:31:50.440Z,76.09
2023-01-29T00:34:17.268Z,74.98
2023-01-29T00:36:45.638Z,76.34
2023-01-29T00:39:12.428Z,74.93
2023-01-29T00:41:59.080Z,75.81
2023-01-29T00:44:45.635Z,75.24
2023-01-29T00:47:32.181Z,76.24
2023-01-29T00:50:00.664Z,74.85
2023-01-29T00:52:28.873Z,75.60
2023-01-29T00:54:58.535Z,75.46
2023-01-29T00:57:27.525Z,75.04
2023-01-29T00:59:54.582Z,75.41
2023-01-29T01:02:41.858Z,75.89
2023-01-29T01:05:14.338Z,75.48
2023-01-29T01:07:41.444Z,75.59
2023-01-29T01:10:28.458Z,74.30
2023-01-29T01:12:58.487Z,75.83
2023-01-29T01:15:28.921Z,75.93
2023-01-29T01:17:58.000Z,74.27
2023-01-29T01:20:27.594Z,74.78
2023-01-29T01:22:56.923Z,75.01
2023-01-29T01:25:27.001Z,75.37
2023-01-29T01:27:57.729Z,75.42
2023-01-29T01:30:27.183Z,75.40
2023-01-29T01:32:55.685Z,75.52
2023-01-29T01:35:24.493Z,74.43
2023-01-29T01:37:52.665Z,75.68
2023-01-29T01:40:24.555Z,74.62
2023-01-29T01:42:55.900Z,75.16
2023-01-29T01:45:35.702Z,74.98
2023-01-29T01:53:27.020Z,74.95
2023-01-29T01:56:00.432Z,74.67
2023-01-29T01:58:33.502Z,74.78
2023-01-29T02:01:01.487Z,74.81
2023-01-29T02:03:51.438Z,74.86
2023-01-29T02:06:37.941Z,75.14
2023-01-29T02:09:31.654Z,74.85
2023-01-29T02:11:58.396Z,75.59
2023-01-29T02:14:25.515Z,76.03
2023-01-29T02:16:52.304Z,75.86
2023-01-29T02:19:35.705Z,75.85
2023-01-29T02:22:12.387Z,74.92
2023-01-29T02:25:09.898Z,75.75
2023-01-29T02:30:41.207Z,76.26
2023-01-29T02:38:45.903Z,74.98
2023-01-29T02:43:59.727Z,75.75
2023-01-29T02:49:25.154Z,75.76
2023-01-29T02:52:02.844Z,75.44
2023-01-29T02:54:43.850Z,76.00
2023-01-29T02:57:20.832Z,76.57
2023-01-29T03:00:07.292Z,76.35
2023-01-29T03:02:43.333Z,75.55
2023-01-29T03:05:17.648Z,75.85
2023-01-29T03:07:52.397Z,76.28
2023-01-29T03:10:25.311Z,75.82
2023-01-29T03:12:57.792Z,76.07
2023-01-29T03:15:31.263Z,76.28
2023-01-29T03:18:06.129Z,75.50
2023-01-29T03:20:38.847Z,76.49
2023-01-29T03:23:13.644Z,75.88
2023-01-29T03:26:02.392Z,75.88
2023-01-29T03:28:50.412Z,75.64
2023-01-29T03:31:38.532Z,75.33
2023-01-29T03:34:16.667Z,75.47
2023-01-29T03:36:50.677Z,76.17
2023-01-29T03:39:17.648Z,75.35
2023-01-29T03:41:51.856Z,75.58
2023-01-29T03:47:05.028Z,76.17
2023-01-29T03:49:39.905Z,76.28
2023-01-29T03:52:18.053Z,75.83
2023-01-29T03:55:10.858Z,76.11
2023-01-29T03:57:45.655Z,75.37
2023-01-29T04:00:25.995Z,75.41
2023-01-29T04:03:07.981Z,76.10
2023-01-29T04:05:58.725Z,75.96
2023-01-29T04:08:30.421Z,75.52
2023-01-29T04:11:02.931Z,76.01
2023-01-29T04:13:33.834Z,75.68
2023-01-29T04:16:04.381Z,75.19
2023-01-29T04:18:31.547Z,75.23
2023-01-29T04:21:00.528Z,75.86
2023-01-29T04:23:27.893Z,75.50
2023-01-29T04:26:29.111Z,75.43
2023-01-29T04:32:20.076Z,75.54
2023-01-29T04:35:21.894Z,75.96
2023-01-29T04:40:39.592Z,76.17
2023-01-29T04:43:15.307Z,75.90
2023-01-29T04:54:23.639Z,75.87
2023-01-29T04:59:33.861Z,76.09
2023-01-29T05:02:02.592Z,76.16
2023-01-29T05:04:33.274Z,75.75
2023-01-29T05:07:05.139Z,76.11
2023-01-29T05:09:33.312Z,75.38
2023-01-29T05:12:01.131Z,76.20
2023-01-29T05:14:31.133Z,75.71
2023-01-29T05:17:01.728Z,76.46
2023-01-29T05:19:28.370Z,76.30
2023-01-29T05:21:55.574Z,76.26
2023-01-29T05:24:24.714Z,75.90
2023-01-29T05:27:13.512Z,76.65
2023-01-29T05:29:45.440Z,75.84
2023-01-29T05:32:12.634Z,75.79
2023-01-29T05:34:39.428Z,76.41
2023-01-29T05:37:06.182Z,76.76
2023-01-29T05:39:33.263Z,76.78
2023-01-29T05:42:00.188Z,76.71
2023-01-29T05:44:26.833Z,76.71
2023-01-29T05:46:53.599Z,75.89
2023-01-29T05:49:20.735Z,75.83
2023-01-29T05:51:47.518Z,76.83
2023-01-29T05:54:14.602Z,76.78
2023-01-29T05:56:41.297Z,75.51
2023-01-29T05:59:07.971Z,76.56
2023-01-29T06:01:34.801Z,76.39
2023-01-29T06:04:01.834Z,75.96
2023-01-29T06:06:28.502Z,76.15
2023-01-29T06:08:56.373Z,76.13
2023-01-29T06:11:23.406Z,76.87
2023-01-29T06:13:50.593Z,76.17
2023-01-29T06:16:17.532Z,76.94
2023-01-29T06:18:44.320Z,76.60
2023-01-29T06:21:13.872Z,76.53
2023-01-29T06:23:40.855Z,76.50
2023-01-29T06:26:11.083Z,76.43
2023-01-29T06:28:38.696Z,76.68
2023-01-29T06:31:37.224Z,77.36
2023-01-29T06:33:53.832Z,76.51
2023-01-29T06:36:20.641Z,76.49
2023-01-29T06:38:47.571Z,77.43
2023-01-29T06:41:18.170Z,77.17
2023-01-29T06:43:45.710Z,77.01
2023-01-29T06:46:12.312Z,76.53
2023-01-29T06:48:39.264Z,77.15
2023-01-29T06:51:08.371Z,76.89
2023-01-29T06:53:36.248Z,77.32
2023-01-29T06:56:03.792Z,76.98
2023-01-29T06:58:30.626Z,77.78
2023-01-29T07:01:09.513Z,76.75
2023-01-29T07:03:36.830Z,76.87
2023-01-29T07:06:04.494Z,77.86
2023-01-29T07:08:31.336Z,77.21
2023-01-29T07:11:00.741Z,77.58
2023-01-29T07:13:27.787Z,77.05
2023-01-29T07:15:54.403Z,77.50
2023-01-29T07:18:21.086Z,77.23
2023-01-29T07:20:47.732Z,77.81
2023-01-29T07:23:15.574Z,77.21
2023-01-29T07:25:42.581Z,77.93
2023-01-29T07:28:09.459Z,77.35
2023-01-29T07:30:36.376Z,77.73
2023-01-29T07:33:07.583Z,78.14
2023-01-29T07:35:43.596Z,77.46
2023-01-29T07:38:11.287Z,77.27
2023-01-29T07:40:38.325Z,77.86
2023-01-29T07:43:07.420Z,78.06
2023-01-29T07:45:36.462Z,78.25
2023-01-29T07:48:05.289Z,77.97
2023-01-29T07:50:33.859Z,77.50
2023-01-29T07:53:00.942Z,78.19
2023-01-29T07:55:28.070Z,78.21
2023-01-29T07:57:59.850Z,77.99
2023-01-29T08:00:27.071Z,78.30
2023-01-29T08:02:53.798Z,77.32
2023-01-29T08:05:20.898Z,78.22
2023-01-29T08:08:05.765Z,78.48
2023-01-29T08:10:33.848Z,78.28
2023-01-29T08:13:01.816Z,77.96
2023-01-29T08:15:29.577Z,77.54
2023-01-29T08:20:43.494Z,78.61
2023-01-29T08:23:15.556Z,78.28
2023-01-29T08:25:42.292Z,77.91
2023-01-29T08:28:09.955Z,78.24
2023-01-29T08:30:36.786Z,77.71
2023-01-29T08:33:04.918Z,78.42
2023-01-29T08:35:31.795Z,77.87
2023-01-29T08:38:02.500Z,78.72
2023-01-29T08:40:33.252Z,78.09
2023-01-29T08:43:03.031Z,78.26
2023-01-29T08:45:34.613Z,78.78
2023-01-29T08:48:01.434Z,78.14
2023-01-29T08:50:30.718Z,77.39
2023-01-29T08:52:59.385Z,78.74
2023-01-29T08:55:27.153Z,78.84
2023-01-29T08:57:54.567Z,78.68
2023-01-29T09:00:21.792Z,78.99
2023-01-29T09:02:48.486Z,77.75
2023-01-29T09:05:15.654Z,77.85
2023-01-29T09:07:42.877Z,78.56
2023-01-29T09:10:10.662Z,78.16
2023-01-29T09:12:37.329Z,78.02
2023-01-29T09:15:04.370Z,77.78
2023-01-29T09:17:30.997Z,78.25
2023-01-29T09:19:58.933Z,78.75
2023-01-29T09:22:25.636Z,78.82
2023-01-29T09:24:52.682Z,77.76
2023-01-29T09:27:19.490Z,77.68
2023-01-29T09:29:46.591Z,78.90
2023-01-29T09:32:13.214Z,78.13
2023-01-29T09:34:39.787Z,78.95
2023-01-29T09:37:06.973Z,78.51
2023-01-29T09:39:33.565Z,78.65
2023-01-29T09:47:20.677Z,78.04
2023-01-29T09:49:52.398Z,77.99
2023-01-29T09:52:26.336Z,79.57
2023-01-29T09:57:42.294Z,79.33
2023-01-29T10:00:14.751Z,79.85
2023-01-29T10:14:39.700Z,78.46
2023-01-29T10:20:26.747Z,78.53
2023-01-29T10:25:50.366Z,79.50
2023-01-29T10:28:20.965Z,79.39
2023-01-29T10:30:50.907Z,77.98
2023-01-29T10:33:24.949Z,78.50
2023-01-29T10:35:57.832Z,78.99
2023-01-29T10:47:11.100Z,78.00
2023-01-29T10:52:55.098Z,78.65
2023-01-29T11:00:54.836Z,77.29
2023-01-29T11:03:29.164Z,77.28
2023-01-29T11:08:41.054Z,76.83
2023-01-29T11:11:13.078Z,78.25
2023-01-29T11:13:47.585Z,77.32
2023-01-29T11:16:15.062Z,76.88
2023-01-29T11:18:52.590Z,77.30
2023-01-29T11:21:19.638Z,77.24
2023-01-29T11:23:47.174Z,76.64
2023-01-29T11:26:19.316Z,77.76
2023-01-29T11:28:48.963Z,77.13
2023-01-29T11:34:16.973Z,77.17
2023-01-29T11:36:45.302Z,76.92
2023-01-29T11:42:03.727Z,77.47
2023-01-29T11:49:54.042Z,76.51
2023-01-29T11:52:24.139Z,76.27
2023-01-29T11:54:55.797Z,76.63
2023-01-29T11:57:27.683Z,76.13
2023-01-29T11:59:57.283Z,75.84
2023-01-29T12:02:36.636Z,75.87
2023-01-29T12:05:14.561Z,75.18
2023-01-29T12:07:43.795Z,75.03
2023-01-29T12:15:49.142Z,74.83
2023-01-29T12:21:12.249Z,74.22
2023-01-29T12:24:07.665Z,74.64
2023-01-29T12:26:40.426Z,73.89
2023-01-29T12:29:34.326Z,73.88
2023-01-29T12:32:12.690Z,74.20
2023-01-29T12:37:46.243Z,72.80
2023-01-29T12:40:16.175Z,73.12
2023-01-29T12:42:48.277Z,73.00
2023-01-29T12:45:25.347Z,72.43
2023-01-29T12:47:56.299Z,71.87
2023-01-29T12:50:29.267Z,71.85
2023-01-29T12:55:45.418Z,70.31
2023-01-29T12:58:16.416Z,70.91
2023-01-29T13:00:46.577Z,71.47
2023-01-29T13:08:37.538Z,70.85
2023-01-29T13:11:12.265Z,70.65
2023-01-29T13:13:54.145Z,70.26
2023-01-29T13:16:26.604Z,70.10
2023-01-29T13:18:58.018Z,70.47
2023-01-29T13:21:29.529Z,70.23
2023-01-29T13:24:01.821Z,70.28
2023-01-29T13:26:29.098Z,69.80
2023-01-29T13:28:56.142Z,68.72
2023-01-29T13:31:34.938Z,69.16
2023-01-29T13:34:28.528Z,68.74
2023-01-29T13:36:59.434Z,68.96
2023-01-29T13:39:34.327Z,68.98
2023-01-29T13:42:03.855Z,69.60
2023-01-29T13:44:37.881Z,69.40
2023-01-29T13:47:07.989Z,69.38
2023-01-29T13:49:40.429Z,69.72
2023-01-29T13:55:21.450Z,69.34
2023-01-29T13:57:50.141Z,69.65
2023-01-29T14:11:35.926Z,68.83
2023-01-29T14:14:42.307Z,68.57
2023-01-29T14:17:09.027Z,68.99
2023-01-29T14:19:35.644Z,68.64
2023-01-29T14:22:02.405Z,68.94
2023-01-29T14:24:31.145Z,68.82
2023-01-29T14:26:57.920Z,68.94
2023-01-29T14:29:34.795Z,69.27
2023-01-29T14:32:24.999Z,69.04
2023-01-29T14:34:55.712Z,69.08
2023-01-29T14:37:31.356Z,69.19
2023-01-29T14:40:07.636Z,68.93
2023-01-29T14:42:37.960Z,69.07
2023-01-29T14:53:16.751Z,69.07
2023-01-29T14:55:48.717Z,69.15
2023-01-29T14:58:27.444Z,69.11
2023-01-29T15:00:59.118Z,69.29
2023-01-29T15:03:46.238Z,68.72
2023-01-29T15:06:24.200Z,69.36
2023-01-29T15:09:03.080Z,69.11
2023-01-29T15:11:40.932Z,69.11
2023-01-29T15:14:23.965Z,68.98
2023-01-29T15:19:35.376Z,69.00
2023-01-29T15:22:08.757Z,69.06
2023-01-29T15:24:37.254Z,69.13
2023-01-29T15:27:06.639Z,69.66
2023-01-29T15:29:33.858Z,68.99
2023-01-29T15:32:01.745Z,68.56
2023-01-29T15:34:28.538Z,68.99
2023-01-29T15:36:55.355Z,69.26
2023-01-29T15:39:24.674Z,69.14
2023-01-29T15:42:09.329Z,69.01
2023-01-29T15:44:35.952Z,68.96
2023-01-29T15:47:02.887Z,68.70
2023-01-29T15:49:33.307Z,68.28
2023-01-29T15:52:05.391Z,68.86
2023-01-29T15:54:34.636Z,68.29
2023-01-29T15:57:03.087Z,68.24
2023-01-29T15:59:34.753Z,68.21
2023-01-29T16:02:28.543Z,68.28
2023-01-29T16:04:55.861Z,68.26
2023-01-29T16:07:22.809Z,68.82
2023-01-29T16:09:51.422Z,68.42
2023-01-29T16:12:18.637Z,68.38
2023-01-29T16:14:46.219Z,67.90
2023-01-29T16:20:01.337Z,67.88
2023-01-29T16:22:34.811Z,68.57
2023-01-29T16:25:04.798Z,68.49
2023-01-29T16:27:32.928Z,68.04
2023-01-29T16:30:02.245Z,68.49
2023-01-29T16:32:30.730Z,68.71
2023-01-29T16:35:00.107Z,68.26
2023-01-29T16:40:28.419Z,68.50
2023-01-29T16:46:05.514Z,68.57
2023-01-29T16:48:35.392Z,68.95
2023-01-29T16:51:31.447Z,69.20
2023-01-29T16:54:03.494Z,68.93
2023-01-29T16:56:32.443Z,69.47
2023-01-29T16:59:00.324Z,68.97
2023-01-29T17:01:29.715Z,68.48
2023-01-29T17:04:07.643Z,69.39
2023-01-29T17:06:35.246Z,68.51
2023-01-29T17:09:04.060Z,68.29
2023-01-29T17:11:35.017Z,70.18
2023-01-29T17:14:02.024Z,68.91
2023-01-29T17:16:32.082Z,68.64
2023-01-29T17:19:00.697Z,69.62
2023-01-29T17:21:29.343Z,69.25
2023-01-29T17:23:56.038Z,70.58
2023-01-29T17:26:24.705Z,70.15
2023-01-29T17:28:52.707Z,69.77
2023-01-29T17:31:19.386Z,70.25
2023-01-29T17:33:46.282Z,69.65
2023-01-29T17:36:16.436Z,70.38
2023-01-29T17:38:43.748Z,69.69
2023-01-29T17:43:47.553Z,70.56
2023-01-29T17:46:16.736Z,69.70
2023-01-29T17:48:44.098Z,69.82
2023-01-29T17:51:16.019Z,70.68
2023-01-29T17:53:46.230Z,69.90
2023-01-29T17:56:30.277Z,69.93
2023-01-29T17:58:56.900Z,70.40
2023-01-29T18:01:23.812Z,70.72
2023-01-29T18:03:50.778Z,70.93
2023-01-29T18:06:27.373Z,70.98
2023-01-29T18:08:54.266Z,71.21
2023-01-29T18:11:20.809Z,71.59
2023-01-29T18:13:47.366Z,71.14
2023-01-29T18:16:14.139Z,70.96
2023-01-29T18:18:41.257Z,70.37
2023-01-29T18:21:08.081Z,70.78
2023-01-29T18:23:35.799Z,70.83
2023-01-29T18:26:02.524Z,70.36
2023-01-29T18:28:29.856Z,71.05
2023-01-29T18:30:56.668Z,70.25
2023-01-29T18:33:25.027Z,70.25
2023-01-29T18:35:51.724Z,70.97
2023-01-29T18:38:19.101Z,71.63
2023-01-29T18:40:46.491Z,71.46
2023-01-29T18:43:15.596Z,71.14
2023-01-29T18:45:42.816Z,71.03
2023-01-29T18:48:09.508Z,70.76
2023-01-29T18:50:36.877Z,70.81
2023-01-29T18:53:04.709Z,72.14
2023-01-29T18:55:31.407Z,71.88
2023-01-29T18:58:27.465Z,70.94
2023-01-29T19:00:47.165Z,71.61
2023-01-29T19:03:13.913Z,72.79
2023-01-29T19:05:40.467Z,72.04
2023-01-29T19:08:07.633Z,72.38
2023-01-29T19:10:34.812Z,72.75
2023-01-29T19:13:02.182Z,72.15
2023-01-29T19:15:28.973Z,71.83
2023-01-29T19:17:56.747Z,72.47
2023-01-29T19:20:23.484Z,72.48
2023-01-29T19:22:50.395Z,72.44
2023-01-29T19:25:19.721Z,72.39
2023-01-29T19:27:46.899Z,73.00
2023-01-29T19:30:13.705Z,72.21
2023-01-29T19:32:40.716Z,73.00
2023-01-29T19:35:07.515Z,72.33
2023-01-29T19:37:34.133Z,72.45
2023-01-29T19:40:00.675Z,72.46
2023-01-29T19:42:28.267Z,73.14
2023-01-29T19:44:54.887Z,72.86
2023-01-29T19:47:22.308Z,73.87
2023-01-29T19:49:49.898Z,73.88
2023-01-29T19:52:51.076Z,73.73
2023-01-29T19:55:21.424Z,74.39
2023-01-29T19:57:49.540Z,74.78
2023-01-29T20:00:18.653Z,73.20
2023-01-29T20:02:46.109Z,73.72
2023-01-29T20:05:17.419Z,73.68
2023-01-29T20:07:45.366Z,74.42
2023-01-29T20:10:17.911Z,74.12
2023-01-29T20:12:46.664Z,73.62
2023-01-29T20:15:15.051Z,73.58
2023-01-29T20:17:42.189Z,73.43
2023-01-29T20:20:10.626Z,73.15
2023-01-29T20:22:37.291Z,73.01
2023-01-29T20:25:04.496Z,73.84
2023-01-29T20:27:32.263Z,73.39
2023-01-29T20:29:59.757Z,73.94
2023-01-29T20:32:26.953Z,73.90
2023-01-29T20:34:54.357Z,74.50
2023-01-29T20:37:21.826Z,73.71
2023-01-29T20:39:49.123Z,73.83
2023-01-29T20:42:15.911Z,74.21
2023-01-29T20:44:42.574Z,74.33
2023-01-29T20:47:09.521Z,74.61
2023-01-29T20:49:36.305Z,74.80
2023-01-29T20:52:03.821Z,75.51
2023-01-29T20:54:33.424Z,74.91
2023-01-29T20:57:00.905Z,74.71
2023-01-29T20:59:29.615Z,75.48
2023-01-29T21:01:56.784Z,75.30
2023-01-29T21:04:23.967Z,75.58
2023-01-29T21:06:51.573Z,76.08
2023-01-29T21:09:18.815Z,75.33
2023-01-29T21:11:46.631Z,74.62
2023-01-29T21:14:14.733Z,76.41
2023-01-29T21:16:42.204Z,75.39
2023-01-29T21:19:10.659Z,75.84
2023-01-29T21:21:37.529Z,76.70
2023-01-29T21:24:04.984Z,76.26
2023-01-29T21:26:31.680Z,75.54
2023-01-29T21:28:58.349Z,75.89
2023-01-29T21:31:25.015Z,76.00
2023-01-29T21:33:51.668Z,76.63
2023-01-29T21:36:18.292Z,76.58
2023-01-29T21:38:44.864Z,75.42
2023-01-29T21:41:11.874Z,76.98
2023-01-29T21:43:39.068Z,75.71
2023-01-29T21:46:16.323Z,76.56
2023-01-29T21:48:43.277Z,76.06
2023-01-29T21:51:09.928Z,75.76
2023-01-29T21:53:36.844Z,75.61
2023-01-29T21:56:05.606Z,76.00
2023-01-29T21:58:32.305Z,77.08
2023-01-29T22:01:35.126Z,77.47
2023-01-29T22:03:47.419Z,75.74
2023-01-29T22:06:14.464Z,76.87
2023-01-29T22:08:41.045Z,77.52
2023-01-29T22:11:08.835Z,76.92
2023-01-29T22:13:35.594Z,76.07
2023-01-29T22:16:02.211Z,76.46
2023-01-29T22:18:28.937Z,77.44
2023-01-29T22:20:56.677Z,75.88
2023-01-29T22:23:24.273Z,76.64
2023-01-29T22:25:50.974Z,76.67
2023-01-29T22:28:18.615Z,75.89
2023-01-29T22:30:45.632Z,76.52
2023-01-29T22:33:12.814Z,76.41
2023-01-29T22:35:39.676Z,76.61
2023-01-29T22:38:06.679Z,76.02
2023-01-29T22:40:33.246Z,76.85
2023-01-29T22:42:59.843Z,75.93
2023-01-29T22:45:27.116Z,75.72
2023-01-29T22:47:53.652Z,76.07
2023-01-29T22:50:20.587Z,75.75
2023-01-29T22:52:54.105Z,75.65
2023-01-29T22:55:21.038Z,76.71
2023-01-29T22:57:50.063Z,76.19
2023-01-29T23:00:17.748Z,76.83
2023-01-29T23:02:46.832Z,75.80
2023-01-29T23:05:13.463Z,77.04
2023-01-29T23:07:40.375Z,76.05
2023-01-29T23:10:07.764Z,76.03
2023-01-29T23:12:34.441Z,77.05
2023-01-29T23:15:01.110Z,76.62
2023-01-29T23:17:27.999Z,76.18
2023-01-29T23:19:54.581Z,77.24
2023-01-29T23:22:23.865Z,77.16
2023-01-29T23:24:50.761Z,76.27
2023-01-29T23:27:17.810Z,76.26
2023-01-29T23:29:47.024Z,77.67
2023-01-29T23:32:17.810Z,76.27
2023-01-29T23:34:44.718Z,76.89
2023-01-29T23:37:11.616Z,76.72
2023-01-29T23:39:38.366Z,77.68
2023-01-29T23:42:05.419Z,77.35
2023-01-29T23:44:32.098Z,76.29
2023-01-29T23:46:59.324Z,77.18
2023-01-29T23:49:26.153Z,76.22
2023-01-29T23:51:53.173Z,76.47
2023-01-29T23:54:20.019Z,76.90
2023-01-29T23:56:46.662Z,77.55
2023-01-29T23:59:13.444Z,76.47
